Terminal Aerodrome Forecast
Issued by NWS

Home | Current Version | Previous Version | Graphics & Text | Print | Product List | Glossary On
Versions: 1 2 3 4 5 6 7 8 9 10 11 12 13 14 15 16 17 18 19 20 21 22 23 24 25 26 27 28 29 30 31
379
FTUS43 KLOT 261512 AAA
TAFORD
TAF AMD
KORD 261512Z 2615/2718 03006KT P6SM BKN200
     FM261800 07007KT P6SM BKN200
     FM270400 09006KT P6SM SCT070 BKN120
     FM271000 10006KT P6SM VCSH SCT050 BKN090
     FM271400 16007KT 6SM -SHRA BKN050=

USA.gov is the U.S. government's official web portal to all federal, state and local government web resources and services.